createdAt,value
2023-05-21T00:02:30.108Z,16.20
2023-05-21T00:04:58.455Z,16.10
2023-05-21T00:07:27.301Z,16.10
2023-05-21T00:09:57.057Z,16.10
2023-05-21T00:12:25.593Z,16.00
2023-05-21T00:14:54.230Z,16.00
2023-05-21T00:17:26.177Z,16.00
2023-05-21T00:19:54.494Z,16.00
2023-05-21T00:22:23.261Z,15.90
2023-05-21T00:24:52.582Z,15.90
2023-05-21T00:27:21.083Z,15.90
2023-05-21T00:29:49.418Z,15.90
2023-05-21T00:32:17.657Z,15.80
2023-05-21T00:34:47.549Z,15.80
2023-05-21T00:37:16.335Z,15.80
2023-05-21T00:39:44.485Z,15.80
2023-05-21T00:42:18.173Z,15.80
2023-05-21T00:44:46.435Z,15.80
2023-05-21T00:47:18.195Z,15.70
2023-05-21T00:49:48.209Z,15.70
2023-05-21T00:52:20.200Z,15.60
2023-05-21T00:54:50.579Z,15.60
2023-05-21T00:57:20.864Z,15.60
2023-05-21T00:59:52.799Z,15.60
2023-05-21T01:02:24.165Z,15.60
2023-05-21T01:04:56.410Z,15.50
2023-05-21T01:07:24.584Z,15.50
2023-05-21T01:09:54.201Z,15.50
2023-05-21T01:12:24.419Z,15.50
2023-05-21T01:14:53.493Z,15.50
2023-05-21T01:17:24.318Z,15.40
2023-05-21T01:19:54.932Z,15.40
2023-05-21T01:22:24.786Z,15.40
2023-05-21T01:24:57.967Z,15.40
2023-05-21T01:27:26.370Z,15.40
2023-05-21T01:29:54.908Z,15.40
2023-05-21T01:32:34.661Z,15.30
2023-05-21T01:35:10.281Z,15.30
2023-05-21T01:37:52.573Z,15.30
2023-05-21T01:40:30.831Z,15.20
2023-05-21T01:43:00.830Z,15.20
2023-05-21T01:45:32.978Z,15.20
2023-05-21T01:48:01.955Z,15.10
2023-05-21T01:50:31.881Z,15.10
2023-05-21T01:53:00.953Z,15.10
2023-05-21T01:55:31.272Z,15.10
2023-05-21T01:58:02.711Z,15.10
2023-05-21T02:00:32.618Z,15.10
2023-05-21T02:03:01.076Z,15.00
2023-05-21T02:05:30.399Z,15.00
2023-05-21T02:08:00.009Z,15.00
2023-05-21T02:10:28.466Z,15.00
2023-05-21T02:12:59.275Z,14.90
2023-05-21T02:15:27.787Z,14.90
2023-05-21T02:17:56.076Z,14.90
2023-05-21T02:20:24.415Z,14.90
2023-05-21T02:22:52.774Z,14.80
2023-05-21T02:25:21.189Z,14.80
2023-05-21T02:27:53.446Z,14.80
2023-05-21T02:30:23.280Z,14.80
2023-05-21T02:32:51.607Z,14.70
2023-05-21T02:35:19.850Z,14.70
2023-05-21T02:37:48.923Z,14.70
2023-05-21T02:40:17.667Z,14.70
2023-05-21T02:42:45.962Z,14.70
2023-05-21T02:45:19.798Z,14.60
2023-05-21T02:47:49.709Z,14.60
2023-05-21T02:50:22.343Z,14.60
2023-05-21T02:52:56.813Z,14.50
2023-05-21T02:55:25.142Z,14.50
2023-05-21T02:57:53.624Z,14.50
2023-05-21T03:00:22.195Z,14.50
2023-05-21T03:02:52.202Z,14.50
2023-05-21T03:05:20.685Z,14.50
2023-05-21T03:07:48.902Z,14.40
2023-05-21T03:10:17.263Z,14.40
2023-05-21T03:12:48.325Z,14.40
2023-05-21T03:15:23.905Z,14.40
2023-05-21T03:17:54.192Z,14.40
2023-05-21T03:20:22.548Z,14.30
2023-05-21T03:22:50.854Z,14.30
2023-05-21T03:25:20.083Z,14.30
2023-05-21T03:27:48.549Z,14.30
2023-05-21T03:30:35.236Z,14.30
2023-05-21T03:33:31.040Z,14.30
2023-05-21T03:35:59.385Z,14.30
2023-05-21T03:38:30.650Z,14.30
2023-05-21T03:40:58.858Z,14.20
2023-05-21T03:43:27.110Z,14.20
2023-05-21T03:45:56.506Z,14.20
2023-05-21T03:48:44.579Z,14.20
2023-05-21T03:51:15.957Z,14.20
2023-05-21T03:53:44.149Z,14.20
2023-05-21T03:56:12.379Z,14.20
2023-05-21T03:58:40.789Z,14.20
2023-05-21T04:01:10.592Z,14.20
2023-05-21T04:03:40.739Z,14.20
2023-05-21T04:06:11.205Z,14.10
2023-05-21T04:08:43.234Z,14.10
2023-05-21T04:11:11.412Z,14.10
2023-05-21T04:13:40.542Z,14.10
2023-05-21T04:16:09.782Z,14.10
2023-05-21T04:18:38.808Z,14.10
2023-05-21T04:21:09.993Z,14.10
2023-05-21T04:23:39.631Z,14.10
2023-05-21T04:26:16.229Z,14.00
2023-05-21T04:28:45.839Z,14.00
2023-05-21T04:31:15.782Z,14.10
2023-05-21T04:33:45.992Z,14.00
2023-05-21T04:36:17.171Z,14.00
2023-05-21T04:38:48.715Z,14.00
2023-05-21T04:41:18.715Z,14.00
2023-05-21T04:43:46.868Z,14.10
2023-05-21T04:46:16.526Z,14.00
2023-05-21T04:48:45.117Z,14.10
2023-05-21T04:51:15.029Z,14.10
2023-05-21T04:53:43.132Z,14.10
2023-05-21T04:56:12.616Z,14.10
2023-05-21T04:58:41.594Z,14.10
2023-05-21T05:01:09.774Z,14.10
2023-05-21T05:03:37.928Z,14.10
2023-05-21T05:06:07.804Z,14.10
2023-05-21T05:08:36.465Z,14.10
2023-05-21T05:11:05.724Z,14.20
2023-05-21T05:13:35.366Z,14.20
2023-05-21T05:16:03.607Z,14.20
2023-05-21T05:18:32.072Z,14.20
2023-05-21T05:21:00.230Z,14.20
2023-05-21T05:23:28.491Z,14.20
2023-05-21T05:25:56.647Z,14.20
2023-05-21T05:28:24.807Z,14.20
2023-05-21T05:30:54.958Z,14.30
2023-05-21T05:33:31.788Z,14.30
2023-05-21T05:35:59.968Z,14.30
2023-05-21T05:38:28.229Z,14.30
2023-05-21T05:40:56.493Z,14.30
2023-05-21T05:43:26.513Z,14.30
2023-05-21T05:45:56.385Z,14.30
2023-05-21T05:48:25.169Z,14.40
2023-05-21T05:50:56.033Z,14.40
2023-05-21T05:53:26.638Z,14.40
2023-05-21T05:55:55.487Z,14.40
2023-05-21T05:58:23.547Z,14.40
2023-05-21T06:01:06.703Z,14.50
2023-05-21T06:03:35.072Z,14.50
2023-05-21T06:06:11.218Z,14.50
2023-05-21T06:08:40.444Z,14.50
2023-05-21T06:11:08.790Z,14.50
2023-05-21T06:13:37.180Z,14.60
2023-05-21T06:16:09.910Z,14.60
2023-05-21T06:18:38.764Z,14.60
2023-05-21T06:21:07.121Z,14.70
2023-05-21T06:23:37.643Z,14.70
2023-05-21T06:26:06.262Z,14.70
2023-05-21T06:28:34.488Z,14.70
2023-05-21T06:31:02.752Z,14.70
2023-05-21T06:33:34.266Z,14.80
2023-05-21T06:36:02.564Z,14.80
2023-05-21T06:38:31.056Z,14.80
2023-05-21T06:41:00.008Z,14.90
2023-05-21T06:43:46.933Z,14.90
2023-05-21T06:46:35.853Z,14.90
2023-05-21T06:49:09.304Z,15.00
2023-05-21T06:51:37.498Z,15.00
2023-05-21T06:54:06.688Z,15.00
2023-05-21T06:56:36.615Z,15.00
2023-05-21T06:59:14.325Z,15.10
2023-05-21T07:01:46.574Z,15.10
2023-05-21T07:04:20.354Z,15.10
2023-05-21T07:06:48.969Z,15.10
2023-05-21T07:09:18.272Z,15.20
2023-05-21T07:11:47.118Z,15.20
2023-05-21T07:14:17.532Z,15.20
2023-05-21T07:16:45.910Z,15.20
2023-05-21T07:19:17.820Z,15.20
2023-05-21T07:21:46.988Z,15.30
2023-05-21T07:24:15.138Z,15.30
2023-05-21T07:26:44.230Z,15.30
2023-05-21T07:29:13.350Z,15.40
2023-05-21T07:31:42.002Z,15.40
2023-05-21T07:34:10.486Z,15.50
2023-05-21T07:36:42.510Z,15.50
2023-05-21T07:39:11.045Z,15.60
2023-05-21T07:41:40.006Z,15.60
2023-05-21T07:44:14.601Z,15.60
2023-05-21T07:46:45.020Z,15.70
2023-05-21T07:49:16.770Z,15.70
2023-05-21T07:51:48.028Z,15.70
2023-05-21T07:54:58.653Z,15.80
2023-05-21T07:57:28.206Z,15.90
2023-05-21T08:00:00.109Z,16.00
2023-05-21T08:02:32.131Z,16.10
2023-05-21T08:10:53.568Z,16.20
2023-05-21T08:13:26.063Z,16.30
2023-05-21T08:16:00.378Z,16.40
2023-05-21T08:18:58.253Z,16.40
2023-05-21T08:39:42.941Z,16.90
2023-05-21T08:42:37.573Z,17.00
2023-05-21T08:45:09.692Z,17.10
2023-05-21T08:47:44.362Z,17.10
2023-05-21T08:50:15.326Z,17.20
2023-05-21T08:52:43.923Z,17.30
2023-05-21T08:55:23.161Z,17.30
2023-05-21T08:58:22.076Z,17.40
2023-05-21T09:00:58.088Z,17.50
2023-05-21T09:03:31.816Z,17.60
2023-05-21T09:06:01.483Z,17.60
2023-05-21T09:08:44.864Z,17.70
2023-05-21T09:11:28.961Z,17.80
2023-05-21T09:14:01.804Z,17.80
2023-05-21T09:16:40.827Z,17.90
2023-05-21T09:19:32.474Z,17.90
2023-05-21T09:22:04.601Z,18.00
2023-05-21T09:29:30.143Z,18.10
2023-05-21T09:36:36.380Z,18.20
2023-05-21T09:53:54.263Z,18.50
2023-05-21T09:57:54.826Z,18.70
2023-05-21T10:03:36.401Z,18.70
2023-05-21T10:05:27.107Z,18.80
2023-05-21T10:14:02.054Z,19.00
2023-05-21T10:16:33.569Z,19.10
2023-05-21T10:25:35.966Z,19.30
2023-05-21T10:28:19.739Z,19.40
2023-05-21T10:32:00.919Z,19.40
2023-05-21T10:34:44.352Z,19.50
2023-05-21T10:37:17.488Z,19.60
2023-05-21T10:39:52.472Z,19.70
2023-05-21T10:42:42.707Z,19.70
2023-05-21T10:46:05.619Z,19.80
2023-05-21T10:54:07.420Z,20.00
2023-05-21T11:29:47.226Z,21.10
2023-05-21T11:32:38.328Z,21.20
2023-05-21T11:35:08.779Z,21.30
2023-05-21T11:37:40.465Z,21.30
2023-05-21T11:40:22.446Z,21.30
2023-05-21T11:42:55.473Z,21.40
2023-05-21T11:45:31.152Z,21.40
2023-05-21T11:48:00.215Z,21.50
2023-05-21T11:50:30.891Z,21.50
2023-05-21T11:53:00.921Z,21.60
2023-05-21T11:55:39.974Z,21.60
2023-05-21T11:58:09.145Z,21.60
2023-05-21T12:00:44.500Z,21.70
2023-05-21T12:03:16.813Z,21.70
2023-05-21T12:06:13.535Z,21.70
2023-05-21T12:08:43.139Z,21.80
2023-05-21T12:11:22.931Z,21.90
2023-05-21T12:14:00.200Z,22.00
2023-05-21T12:16:35.159Z,22.00
2023-05-21T12:20:32.363Z,22.00
2023-05-21T12:23:19.567Z,22.10
2023-05-21T12:26:05.058Z,22.10
2023-05-21T12:28:34.838Z,22.10
2023-05-21T12:31:02.987Z,22.20
2023-05-21T12:37:24.570Z,22.40
2023-05-21T12:40:00.002Z,22.50
2023-05-21T12:42:31.003Z,22.50
2023-05-21T12:45:01.885Z,22.60
2023-05-21T12:47:31.558Z,22.60
2023-05-21T12:50:01.500Z,22.60
2023-05-21T12:52:30.811Z,22.60
2023-05-21T12:55:00.962Z,22.70
2023-05-21T12:57:38.458Z,22.70
2023-05-21T13:00:11.479Z,22.70
2023-05-21T13:02:42.301Z,22.70
2023-05-21T13:05:17.296Z,22.70
2023-05-21T13:07:47.651Z,22.70
2023-05-21T13:10:17.629Z,22.80
2023-05-21T13:12:47.401Z,22.80
2023-05-21T13:15:17.216Z,22.90
2023-05-21T13:17:50.097Z,22.90
2023-05-21T13:20:21.681Z,22.90
2023-05-21T13:22:53.565Z,23.00
2023-05-21T13:25:24.902Z,23.00
2023-05-21T13:27:54.615Z,23.10
2023-05-21T13:30:27.494Z,23.10
2023-05-21T13:32:56.212Z,23.20
2023-05-21T13:35:24.606Z,23.20
2023-05-21T13:38:00.649Z,23.30
2023-05-21T13:40:31.289Z,23.30
2023-05-21T13:43:03.376Z,23.40
2023-05-21T13:45:34.053Z,23.40
2023-05-21T13:48:09.127Z,23.50
2023-05-21T13:50:41.304Z,23.50
2023-05-21T13:53:17.809Z,23.50
2023-05-21T13:55:49.157Z,23.60
2023-05-21T13:58:19.004Z,23.60
2023-05-21T14:00:53.759Z,23.60
2023-05-21T14:03:22.837Z,23.70
2023-05-21T14:05:53.664Z,23.70
2023-05-21T14:08:23.655Z,23.70
2023-05-21T14:10:52.041Z,23.80
2023-05-21T14:13:21.311Z,23.90
2023-05-21T14:15:51.855Z,23.90
2023-05-21T14:18:20.256Z,24.00
2023-05-21T14:20:55.434Z,24.00
2023-05-21T14:23:24.045Z,24.10
2023-05-21T14:25:52.474Z,24.20
2023-05-21T14:28:21.802Z,24.20
2023-05-21T14:30:55.407Z,24.30
2023-05-21T14:33:25.567Z,24.40
2023-05-21T14:35:54.273Z,24.50
2023-05-21T14:38:23.411Z,24.60
2023-05-21T14:40:52.126Z,24.70
2023-05-21T14:43:20.806Z,24.80
2023-05-21T14:45:52.713Z,24.80
2023-05-21T14:48:23.275Z,24.80
2023-05-21T14:50:54.797Z,24.90
2023-05-21T14:54:30.460Z,25.00
2023-05-21T14:57:02.066Z,25.00
2023-05-21T14:59:33.940Z,25.00
2023-05-21T15:02:36.492Z,25.10
2023-05-21T15:05:08.576Z,25.20
2023-05-21T15:07:37.394Z,25.20
2023-05-21T15:14:36.553Z,25.20
2023-05-21T15:17:06.519Z,25.10
2023-05-21T15:19:35.106Z,25.10
2023-05-21T15:22:11.797Z,25.10
2023-05-21T15:24:40.645Z,25.10
2023-05-21T15:28:39.830Z,25.20
2023-05-21T15:35:01.686Z,25.20
2023-05-21T15:37:33.198Z,25.10
2023-05-21T15:41:07.928Z,25.10
2023-05-21T15:44:35.621Z,25.10
2023-05-21T15:47:29.302Z,25.10
2023-05-21T15:56:16.555Z,25.00
2023-05-21T15:59:30.882Z,25.00
2023-05-21T16:25:05.735Z,24.80
2023-05-21T17:27:36.923Z,24.80
2023-05-21T17:30:12.570Z,24.80
2023-05-21T17:32:41.194Z,24.80
2023-05-21T17:35:11.174Z,24.90
2023-05-21T17:37:39.787Z,25.00
2023-05-21T17:40:14.000Z,25.00
2023-05-21T17:42:45.618Z,25.00
2023-05-21T17:45:18.546Z,25.00
2023-05-21T17:48:00.403Z,25.00
2023-05-21T17:55:03.534Z,24.90
2023-05-21T17:57:35.996Z,24.90
2023-05-21T18:12:08.869Z,24.80
2023-05-21T18:14:37.479Z,24.70
2023-05-21T18:17:06.966Z,24.80
2023-05-21T18:19:58.150Z,24.80
2023-05-21T18:22:36.801Z,24.70
2023-05-21T18:25:10.643Z,24.70
2023-05-21T18:28:15.219Z,24.70
2023-05-21T18:30:44.234Z,24.70
2023-05-21T18:33:26.514Z,24.60
2023-05-21T18:36:04.126Z,24.60
2023-05-21T18:40:08.324Z,24.50
2023-05-21T18:46:26.067Z,24.50
2023-05-21T18:52:47.434Z,24.40
2023-05-21T18:56:17.548Z,24.30
2023-05-21T19:06:44.529Z,24.10
2023-05-21T19:13:21.068Z,24.10
2023-05-21T19:16:01.435Z,24.00
2023-05-21T19:18:37.250Z,23.90
2023-05-21T19:21:32.136Z,23.90
2023-05-21T19:27:50.532Z,23.80
2023-05-21T19:30:23.823Z,23.70
2023-05-21T19:32:58.972Z,23.70
2023-05-21T19:35:37.818Z,23.70
2023-05-21T19:38:23.428Z,23.60
2023-05-21T19:41:01.735Z,23.60
2023-05-21T19:43:52.093Z,23.60
2023-05-21T19:46:34.329Z,23.50
2023-05-21T19:49:02.476Z,23.40
2023-05-21T19:51:31.282Z,23.30
2023-05-21T19:53:59.368Z,23.20
2023-05-21T19:56:28.870Z,23.10
2023-05-21T19:58:57.025Z,23.10
2023-05-21T20:01:25.571Z,23.00
2023-05-21T20:03:53.799Z,22.90
2023-05-21T20:06:21.951Z,22.80
2023-05-21T20:08:51.604Z,22.80
2023-05-21T20:11:20.082Z,22.70
2023-05-21T20:13:50.307Z,22.70
2023-05-21T20:16:19.848Z,22.60
2023-05-21T20:18:48.419Z,22.60
2023-05-21T20:21:18.370Z,22.50
2023-05-21T20:23:47.337Z,22.50
2023-05-21T20:26:16.246Z,22.40
2023-05-21T20:28:44.644Z,22.30
2023-05-21T20:31:14.560Z,22.30
2023-05-21T20:33:43.015Z,22.30
2023-05-21T20:36:11.196Z,22.30
2023-05-21T20:38:41.926Z,22.30
2023-05-21T20:41:10.095Z,22.30
2023-05-21T20:43:38.193Z,22.20
2023-05-21T20:46:06.552Z,22.20
2023-05-21T20:48:37.671Z,22.10
2023-05-21T20:51:06.293Z,22.10
2023-05-21T20:53:34.585Z,22.00
2023-05-21T20:56:02.871Z,22.00
2023-05-21T20:58:31.477Z,21.90
2023-05-21T21:01:01.923Z,21.90
2023-05-21T21:03:33.640Z,21.90
2023-05-21T21:06:04.233Z,21.90
2023-05-21T21:08:34.686Z,21.90
2023-05-21T21:11:03.014Z,21.80
2023-05-21T21:13:31.107Z,21.80
2023-05-21T21:15:59.250Z,21.70
2023-05-21T21:18:27.314Z,21.70
2023-05-21T21:20:55.702Z,21.60
2023-05-21T21:23:28.565Z,21.50
2023-05-21T21:25:57.191Z,21.50
2023-05-21T21:28:25.444Z,21.40
2023-05-21T21:30:53.591Z,21.40
2023-05-21T21:33:24.179Z,21.40
2023-05-21T21:35:52.319Z,21.30
2023-05-21T21:38:20.425Z,21.30
2023-05-21T21:40:49.949Z,21.20
2023-05-21T21:43:18.038Z,21.20
2023-05-21T21:45:46.260Z,21.10
2023-05-21T21:48:16.417Z,21.10
2023-05-21T21:50:44.824Z,21.10
2023-05-21T21:53:13.939Z,21.10
2023-05-21T21:55:42.169Z,21.00
2023-05-21T21:58:11.808Z,20.90
2023-05-21T22:00:40.227Z,20.90
2023-05-21T22:03:08.594Z,20.90
2023-05-21T22:05:36.718Z,20.90
2023-05-21T22:08:05.442Z,20.90
2023-05-21T22:10:37.894Z,20.90
2023-05-21T22:13:06.277Z,20.80
2023-05-21T22:15:36.008Z,20.80
2023-05-21T22:18:04.480Z,20.80
2023-05-21T22:20:33.121Z,20.80
2023-05-21T22:23:01.545Z,20.70
2023-05-21T22:25:29.702Z,20.70
2023-05-21T22:27:57.817Z,20.70
2023-05-21T22:30:25.900Z,20.70
2023-05-21T22:32:56.615Z,20.70
2023-05-21T22:35:25.059Z,20.60
2023-05-21T22:37:53.349Z,20.50
2023-05-21T22:40:21.427Z,20.50
2023-05-21T22:42:49.561Z,20.40
2023-05-21T22:45:18.817Z,20.40
2023-05-21T22:47:48.005Z,20.30
2023-05-21T22:50:17.994Z,20.30
2023-05-21T22:52:46.182Z,20.20
2023-05-21T22:55:14.938Z,20.20
2023-05-21T22:57:43.115Z,20.10
2023-05-21T23:00:12.497Z,20.10
2023-05-21T23:02:40.747Z,20.00
2023-05-21T23:05:09.908Z,20.00
2023-05-21T23:07:39.430Z,19.90
2023-05-21T23:10:09.951Z,19.90
2023-05-21T23:12:38.433Z,19.90
2023-05-21T23:15:07.690Z,19.90
2023-05-21T23:17:36.124Z,19.90
2023-05-21T23:20:04.585Z,19.90
2023-05-21T23:22:32.725Z,19.80
2023-05-21T23:25:02.268Z,19.80
2023-05-21T23:27:30.403Z,19.80
2023-05-21T23:29:58.572Z,19.80
2023-05-21T23:32:27.337Z,19.80
2023-05-21T23:34:56.837Z,19.80
2023-05-21T23:37:24.967Z,19.80
2023-05-21T23:39:53.043Z,19.80
2023-05-21T23:42:22.778Z,19.80
2023-05-21T23:44:50.911Z,19.80
2023-05-21T23:47:19.019Z,19.80
2023-05-21T23:49:47.123Z,19.80
2023-05-21T23:52:17.197Z,19.80
2023-05-21T23:54:45.520Z,19.80
2023-05-21T23:57:14.167Z,19.80
2023-05-21T23:59:43.565Z,19.70
